Time;durP1;ratioP1;P1;durP2;ratioP2;P2;SDS_P1;SDS_P2;PMS_P1;PMS_P2;Temp;Humidity;BMP_temperature;BMP_pressure;BME280_temperature;BME280_humidity;BME280_pressure;Samples;Min_cycle;Max_cycle;Signal;HPM_P1;HPM_P2
2021/08/09 00:01:52;;;;;;;5.45;3.22;;;21.20;69.90;;;;;;5050900;28;20092;-62
2021/08/09 00:04:18;;;;;;;5.82;3.45;;;21.20;69.90;;;;;;5050694;28;20063;-62
2021/08/09 00:06:44;;;;;;;5.38;3.60;;;21.20;70.20;;;;;;5050690;28;20126;-62
2021/08/09 00:09:09;;;;;;;6.05;3.90;;;21.20;70.30;;;;;;5054186;28;20392;-62
2021/08/09 00:11:35;;;;;;;5.50;3.63;;;21.10;70.50;;;;;;5054256;28;20380;-62
2021/08/09 00:14:01;;;;;;;7.18;3.90;;;21.10;70.70;;;;;;5054214;28;20431;-62
2021/08/09 00:16:26;;;;;;;6.28;3.80;;;21.10;71.00;;;;;;5054127;28;20369;-62
2021/08/09 00:18:52;;;;;;;6.43;4.45;;;21.00;71.10;;;;;;5054142;28;20468;-62
2021/08/09 00:21:19;;;;;;;5.95;4.00;;;21.00;71.40;;;;;;5054121;28;20791;-62
2021/08/09 00:23:45;;;;;;;5.47;3.88;;;21.00;71.30;;;;;;5054227;28;20029;-62
2021/08/09 00:26:11;;;;;;;8.45;3.90;;;21.00;71.20;;;;;;5054181;28;20467;-62
2021/08/09 00:28:37;;;;;;;5.53;3.80;;;20.90;71.30;;;;;;5054011;28;20032;-62
2021/08/09 00:31:03;;;;;;;6.13;3.92;;;20.90;71.30;;;;;;5052328;28;20437;-62
2021/08/09 00:33:29;;;;;;;5.82;3.70;;;20.90;71.50;;;;;;5053774;28;20056;-62
2021/08/09 00:35:55;;;;;;;6.57;4.05;;;20.80;71.50;;;;;;5053707;28;20021;-62
2021/08/09 00:38:21;;;;;;;5.70;3.78;;;20.80;71.60;;;;;;5053755;28;20020;-61
2021/08/09 00:40:46;;;;;;;6.20;4.05;;;20.80;71.80;;;;;;5053645;28;20463;-61
2021/08/09 00:43:12;;;;;;;5.88;4.32;;;20.70;71.90;;;;;;5053452;28;20033;-61
2021/08/09 00:45:38;;;;;;;5.65;4.07;;;20.70;72.10;;;;;;5053658;28;20032;-61
2021/08/09 00:48:04;;;;;;;6.43;4.15;;;20.70;72.20;;;;;;5053734;28;20033;-60
2021/08/09 00:50:30;;;;;;;6.68;4.38;;;20.60;72.10;;;;;;5053419;28;20025;-61
2021/08/09 00:52:57;;;;;;;6.20;4.20;;;20.60;72.40;;;;;;5053545;28;20218;-61
2021/08/09 00:55:24;;;;;;;6.25;4.25;;;20.60;72.70;;;;;;5053269;28;20025;-61
2021/08/09 00:57:49;;;;;;;6.88;4.25;;;20.50;72.70;;;;;;5053382;28;20113;-61
2021/08/09 01:00:15;;;;;;;6.25;4.13;;;20.50;72.90;;;;;;5053270;28;20104;-61
2021/08/09 01:02:43;;;;;;;6.15;4.43;;;20.50;73.00;;;;;;5053172;28;20030;-61
2021/08/09 01:05:10;;;;;;;6.72;4.45;;;20.50;73.20;;;;;;5052878;28;20052;-61
2021/08/09 01:08:02;;;;;;;6.15;4.15;;;20.50;73.10;;;;;;5051961;28;20025;-61
2021/08/09 01:11:05;;;;;;;6.03;4.30;;;20.40;73.40;;;;;;5053092;28;20033;-61
2021/08/09 01:13:54;;;;;;;7.10;4.32;;;20.40;73.50;;;;;;5037845;28;20488;-61
2021/08/09 01:16:30;;;;;;;5.68;4.20;;;20.40;73.40;;;;;;5053254;28;20403;-61
2021/08/09 01:19:01;;;;;;;6.93;4.25;;;20.30;73.10;;;;;;5051900;28;20480;-61
2021/08/09 01:21:33;;;;;;;7.80;4.03;;;20.30;73.30;;;;;;5052896;28;20068;-61
2021/08/09 01:24:33;;;;;;;6.20;4.23;;;20.30;73.30;;;;;;5052930;28;20025;-61
2021/08/09 01:27:06;;;;;;;6.65;4.55;;;20.20;73.20;;;;;;5047450;28;20269;-61
2021/08/09 01:29:41;;;;;;;6.20;4.28;;;20.20;73.30;;;;;;5053385;28;20025;-61
2021/08/09 01:32:09;;;;;;;5.80;4.22;;;20.20;73.30;;;;;;5052435;28;20067;-61
2021/08/09 01:34:35;;;;;;;6.70;4.60;;;20.10;73.30;;;;;;5052656;28;20025;-61
2021/08/09 01:37:03;;;;;;;6.22;4.43;;;20.10;73.50;;;;;;5052354;28;20060;-61
2021/08/09 01:39:29;;;;;;;6.38;4.28;;;20.10;73.70;;;;;;5052599;28;20021;-61
2021/08/09 01:41:56;;;;;;;6.53;4.20;;;20.10;73.70;;;;;;5052341;28;20021;-61
2021/08/09 01:44:22;;;;;;;5.85;4.13;;;20.00;73.80;;;;;;5052449;28;20045;-61
2021/08/09 01:46:49;;;;;;;5.47;3.90;;;20.00;74.10;;;;;;5052279;28;20029;-61
2021/08/09 01:49:15;;;;;;;5.75;3.95;;;20.00;74.20;;;;;;5052266;28;20040;-61
2021/08/09 01:51:41;;;;;;;6.57;4.22;;;19.90;74.20;;;;;;5052353;28;20022;-61
2021/08/09 01:54:08;;;;;;;6.00;4.22;;;19.90;74.40;;;;;;5052282;28;20055;-61
2021/08/09 01:56:34;;;;;;;6.15;4.20;;;19.90;74.70;;;;;;5052450;28;20017;-61
2021/08/09 01:59:00;;;;;;;6.22;4.20;;;19.90;75.00;;;;;;5052139;28;20479;-61
2021/08/09 02:01:26;;;;;;;5.70;3.88;;;20.00;75.10;;;;;;5052122;28;20029;-61
2021/08/09 02:03:53;;;;;;;6.18;4.32;;;19.90;75.20;;;;;;5052138;28;20020;-61
2021/08/09 02:06:19;;;;;;;6.38;4.60;;;19.90;75.40;;;;;;5052261;28;20091;-61
2021/08/09 02:08:46;;;;;;;6.28;4.30;;;19.90;75.40;;;;;;5052369;28;20017;-61
2021/08/09 02:11:22;;;;;;;6.05;4.30;;;19.90;75.40;;;;;;5052597;28;20037;-61
2021/08/09 02:13:59;;;;;;;6.75;4.10;;;19.90;75.50;;;;;;5051819;28;20013;-61
2021/08/09 02:16:34;;;;;;;6.45;4.10;;;19.80;75.40;;;;;;5052035;28;20025;-61
2021/08/09 02:19:30;;;;;;;7.45;4.32;;;19.80;75.50;;;;;;5051814;28;20472;-61
2021/08/09 02:22:02;;;;;;;6.80;4.30;;;19.80;76.00;;;;;;5049717;28;20087;-61
2021/08/09 02:24:32;;;;;;;6.20;4.38;;;19.80;75.70;;;;;;5051768;28;20464;-61
2021/08/09 02:27:04;;;;;;;6.53;4.22;;;19.80;75.90;;;;;;5052010;28;20357;-61
2021/08/09 02:29:32;;;;;;;;;;;19.80;75.90;;;;;;5051959;28;20491;-61
2021/08/09 02:32:00;;;;;;;6.07;4.30;;;19.80;76.10;;;;;;5051475;28;19971;-61
2021/08/09 02:34:29;;;;;;;6.80;4.60;;;19.70;76.00;;;;;;5051608;28;20480;-61
2021/08/09 02:36:56;;;;;;;6.57;4.50;;;19.70;76.00;;;;;;5051638;28;20360;-61
2021/08/09 02:39:22;;;;;;;6.35;4.30;;;19.80;76.10;;;;;;5051761;28;20111;-61
2021/08/09 02:41:48;;;;;;;6.13;4.32;;;19.80;76.10;;;;;;5051255;28;20032;-61
2021/08/09 02:44:15;;;;;;;7.25;4.40;;;19.80;76.10;;;;;;5051545;28;20064;-61
2021/08/09 02:46:42;;;;;;;5.80;4.00;;;19.80;76.10;;;;;;5051386;28;20104;-61
2021/08/09 02:49:10;;;;;;;5.95;4.10;;;19.80;75.90;;;;;;5051044;28;20024;-61
2021/08/09 02:51:36;;;;;;;5.50;3.72;;;19.80;75.90;;;;;;5051388;28;20021;-61
2021/08/09 02:54:03;;;;;;;6.35;4.20;;;19.80;75.90;;;;;;5051320;28;20519;-61
2021/08/09 02:56:32;;;;;;;6.22;3.80;;;19.80;76.00;;;;;;5051429;28;20047;-61
2021/08/09 02:58:57;;;;;;;6.10;4.07;;;19.80;75.90;;;;;;5051163;28;20028;-61
2021/08/09 03:01:27;;;;;;;6.25;4.28;;;19.80;76.00;;;;;;5051500;28;20025;-61
2021/08/09 03:03:57;;;;;;;5.47;3.92;;;19.80;75.90;;;;;;5051107;28;20058;-61
2021/08/09 03:06:24;;;;;;;7.28;4.60;;;19.80;75.90;;;;;;5051101;28;20051;-61
2021/08/09 03:08:50;;;;;;;5.85;4.30;;;19.80;76.20;;;;;;5051184;28;20533;-61
2021/08/09 03:11:15;;;;;;;6.32;4.20;;;19.80;76.00;;;;;;5051061;28;20108;-61
2021/08/09 03:13:49;;;;;;;7.25;4.60;;;19.80;76.20;;;;;;5051061;28;20111;-61
2021/08/09 03:16:16;;;;;;;5.55;4.05;;;19.80;76.20;;;;;;5051226;28;20107;-61
2021/08/09 03:18:42;;;;;;;6.20;4.20;;;19.80;76.00;;;;;;5051200;28;20020;-61
2021/08/09 03:21:08;;;;;;;7.70;4.30;;;19.90;76.10;;;;;;5050976;28;20025;-61
2021/08/09 03:23:35;;;;;;;6.05;4.03;;;19.90;76.20;;;;;;5050986;28;20036;-61
2021/08/09 03:26:01;;;;;;;6.03;3.85;;;19.90;76.00;;;;;;5051361;28;20032;-60
2021/08/09 03:28:27;;;;;;;6.25;3.88;;;20.00;76.10;;;;;;5049793;28;20098;-61
2021/08/09 03:30:52;;;;;;;6.07;4.13;;;20.00;76.20;;;;;;5050833;28;20047;-60
2021/08/09 03:33:18;;;;;;;7.28;3.72;;;20.10;76.20;;;;;;5050841;28;20033;-61
2021/08/09 03:35:44;;;;;;;5.07;3.53;;;20.10;76.10;;;;;;5050997;28;20075;-61
2021/08/09 03:38:09;;;;;;;6.15;4.18;;;20.10;75.90;;;;;;5050858;28;20091;-62
2021/08/09 03:40:35;;;;;;;6.60;3.90;;;20.20;75.90;;;;;;5050863;28;20056;-61
2021/08/09 03:43:03;;;;;;;7.10;3.88;;;20.20;75.90;;;;;;5053139;28;20472;-61
2021/08/09 03:45:29;;;;;;;6.70;4.13;;;20.30;75.80;;;;;;5054939;28;20425;-61
2021/08/09 03:47:55;;;;;;;6.15;4.35;;;20.40;75.80;;;;;;5054592;28;20037;-61
2021/08/09 03:50:20;;;;;;;6.13;4.38;;;20.40;75.80;;;;;;5054539;28;20036;-61
2021/08/09 03:52:51;;;;;;;5.20;3.70;;;20.50;75.70;;;;;;5054516;28;20029;-60
2021/08/09 03:55:17;;;;;;;5.88;3.88;;;20.50;75.60;;;;;;5054083;28;20025;-61
2021/08/09 03:57:43;;;;;;;5.82;3.90;;;20.60;75.50;;;;;;5054274;28;20047;-61
2021/08/09 04:00:09;;;;;;;6.28;4.05;;;20.60;75.40;;;;;;5054717;28;20029;-61
2021/08/09 04:02:37;;;;;;;5.72;4.10;;;20.70;75.20;;;;;;5052989;28;20029;-61
2021/08/09 04:05:04;;;;;;;6.32;4.30;;;20.70;75.00;;;;;;5054212;28;20036;-61
2021/08/09 04:07:29;;;;;;;5.47;3.60;;;20.80;74.90;;;;;;5054341;28;20082;-61
2021/08/09 04:09:55;;;;;;;5.40;3.50;;;20.80;74.70;;;;;;5054354;28;20472;-61
2021/08/09 04:12:22;;;;;;;6.45;4.05;;;20.90;74.60;;;;;;5054223;28;20024;-61
2021/08/09 04:14:48;;;;;;;6.13;3.90;;;20.90;74.60;;;;;;5054134;28;20025;-61
2021/08/09 04:17:14;;;;;;;6.00;3.97;;;21.00;74.60;;;;;;5053928;28;20048;-61
2021/08/09 04:19:40;;;;;;;6.05;3.95;;;21.00;74.40;;;;;;5054208;28;20033;-61
2021/08/09 04:22:06;;;;;;;6.22;4.00;;;21.10;74.30;;;;;;5054285;28;20502;-62
2021/08/09 04:24:31;;;;;;;5.90;3.60;;;21.20;74.20;;;;;;5053888;28;20029;-62
2021/08/09 04:26:57;;;;;;;7.13;4.30;;;21.30;74.10;;;;;;5052569;28;20036;-62
2021/08/09 04:29:23;;;;;;;8.55;4.60;;;21.30;73.90;;;;;;5053642;28;20122;-62
2021/08/09 04:31:48;;;;;;;5.57;4.05;;;21.40;73.90;;;;;;5053600;28;20508;-62
2021/08/09 04:34:14;;;;;;;5.50;3.65;;;21.50;73.70;;;;;;5053673;28;20074;-62
2021/08/09 04:36:40;;;;;;;6.65;4.40;;;21.60;73.60;;;;;;5053889;28;20021;-62
2021/08/09 04:39:06;;;;;;;8.45;4.20;;;21.60;74.10;;;;;;5053445;28;20100;-61
2021/08/09 04:41:31;;;;;;;6.20;4.75;;;21.80;73.50;;;;;;5053274;28;20025;-61
2021/08/09 04:43:57;;;;;;;6.32;4.28;;;21.80;73.30;;;;;;5053366;28;20090;-61
2021/08/09 04:46:23;;;;;;;6.60;4.60;;;21.90;73.20;;;;;;5053558;28;20416;-61
2021/08/09 04:48:49;;;;;;;6.10;4.30;;;21.90;73.10;;;;;;5053321;28;20388;-61
2021/08/09 04:51:15;;;;;;;6.30;4.60;;;22.00;73.00;;;;;;5053163;28;20037;-61
2021/08/09 04:53:43;;;;;;;6.38;4.88;;;22.10;72.90;;;;;;5053177;28;20476;-62
2021/08/09 04:56:09;;;;;;;6.93;5.18;;;22.10;72.80;;;;;;5053336;28;20075;-61
2021/08/09 04:58:34;;;;;;;7.32;5.30;;;22.20;72.70;;;;;;5053322;28;20028;-61
2021/08/09 05:01:00;;;;;;;7.55;4.72;;;22.20;72.50;;;;;;5052982;28;20128;-61
2021/08/09 05:03:26;;;;;;;6.45;5.03;;;22.30;72.40;;;;;;5053179;28;20056;-61
2021/08/09 05:05:51;;;;;;;6.82;4.45;;;22.30;72.30;;;;;;5053368;28;20048;-61
2021/08/09 05:08:17;;;;;;;8.00;5.28;;;22.20;72.20;;;;;;5053930;28;20047;-62
2021/08/09 05:10:43;;;;;;;7.95;5.53;;;22.30;72.20;;;;;;5053004;28;20036;-62
2021/08/09 05:13:09;;;;;;;8.02;5.28;;;22.30;71.80;;;;;;5052759;28;20443;-62
2021/08/09 05:15:36;;;;;;;7.03;5.00;;;22.20;71.80;;;;;;5053062;28;20021;-63
2021/08/09 05:18:03;;;;;;;8.93;5.38;;;22.20;71.70;;;;;;5052838;28;20021;-61
2021/08/09 05:20:29;;;;;;;7.07;5.20;;;22.30;71.50;;;;;;5053011;28;20025;-61
2021/08/09 05:22:55;;;;;;;8.48;5.70;;;22.30;71.40;;;;;;5052696;28;20388;-62
2021/08/09 05:25:22;;;;;;;6.85;5.10;;;22.30;71.30;;;;;;5052600;28;20021;-62
2021/08/09 05:27:47;;;;;;;6.47;5.40;;;22.30;71.00;;;;;;5053813;28;20504;-62
2021/08/09 05:30:13;;;;;;;7.55;5.28;;;22.40;70.90;;;;;;5053047;28;20100;-62
2021/08/09 05:32:39;;;;;;;8.10;5.25;;;22.40;70.90;;;;;;5052445;28;20487;-61
2021/08/09 05:35:08;;;;;;;7.88;5.72;;;22.40;70.90;;;;;;5051790;28;20096;-61
2021/08/09 05:37:34;;;;;;;7.78;5.13;;;22.50;70.70;;;;;;5053205;28;20013;-62
2021/08/09 05:40:03;;;;;;;9.43;5.60;;;22.50;70.80;;;;;;5053070;28;20025;-62
2021/08/09 05:42:28;;;;;;;9.98;5.05;;;22.50;70.70;;;;;;5051657;28;20025;-61
2021/08/09 05:44:54;;;;;;;6.72;5.18;;;22.60;70.80;;;;;;5052251;28;20163;-61
2021/08/09 05:47:20;;;;;;;6.72;5.35;;;22.70;70.80;;;;;;5052204;28;20044;-62
2021/08/09 05:49:46;;;;;;;8.52;5.90;;;22.70;70.80;;;;;;5052259;28;20120;-62
2021/08/09 05:52:22;;;;;;;7.97;5.72;;;22.80;70.70;;;;;;5052295;28;20025;-61
2021/08/09 05:54:48;;;;;;;7.82;5.70;;;22.80;70.60;;;;;;5050926;28;20112;-61
2021/08/09 05:57:14;;;;;;;6.70;4.97;;;22.90;70.60;;;;;;5052356;28;20143;-62
2021/08/09 05:59:40;;;;;;;7.20;5.43;;;22.90;70.60;;;;;;5052086;28;20033;-62
2021/08/09 06:02:06;;;;;;;8.00;5.60;;;22.90;70.50;;;;;;5051170;28;20051;-62
2021/08/09 06:04:32;;;;;;;7.32;5.68;;;23.00;70.40;;;;;;5051429;28;20468;-62
2021/08/09 06:06:58;;;;;;;7.80;5.80;;;23.10;70.20;;;;;;5051474;28;20076;-62
2021/08/09 06:09:23;;;;;;;7.45;5.50;;;23.00;70.20;;;;;;5051768;28;20114;-62
2021/08/09 06:11:49;;;;;;;8.05;5.75;;;23.10;70.20;;;;;;5051642;28;20029;-62
2021/08/09 06:14:15;;;;;;;7.65;4.60;;;23.10;70.10;;;;;;5051868;28;20029;-61
2021/08/09 06:16:40;;;;;;;7.82;5.18;;;23.20;70.10;;;;;;5051919;28;20044;-62
2021/08/09 06:19:06;;;;;;;7.30;5.65;;;23.20;69.90;;;;;;5051918;28;20381;-62
2021/08/09 06:21:32;;;;;;;7.13;5.40;;;23.30;69.70;;;;;;5051804;28;20455;-62
2021/08/09 06:23:57;;;;;;;8.38;5.60;;;23.30;69.60;;;;;;5051489;28;20035;-62
2021/08/09 06:26:23;;;;;;;6.93;5.70;;;23.40;69.70;;;;;;5051558;28;20107;-62
2021/08/09 06:28:49;;;;;;;8.45;5.75;;;23.50;69.40;;;;;;5051708;28;20063;-61
2021/08/09 06:31:15;;;;;;;7.28;5.50;;;23.60;69.20;;;;;;5051490;28;20075;-62
2021/08/09 06:33:40;;;;;;;8.38;5.45;;;23.70;69.10;;;;;;5051355;28;20044;-62
2021/08/09 06:36:06;;;;;;;7.10;5.22;;;23.80;69.00;;;;;;5051115;28;20029;-62
2021/08/09 06:38:32;;;;;;;7.13;5.40;;;23.90;68.90;;;;;;5051499;28;20461;-63
2021/08/09 06:40:57;;;;;;;6.90;5.30;;;24.00;68.90;;;;;;5051308;28;20104;-63
2021/08/09 06:43:23;;;;;;;7.75;5.43;;;24.20;68.40;;;;;;5051343;28;20035;-63
2021/08/09 06:45:49;;;;;;;8.18;5.65;;;24.30;68.30;;;;;;5051060;28;20033;-62
2021/08/09 06:48:14;;;;;;;6.90;5.20;;;24.40;67.80;;;;;;5051573;28;20041;-62
2021/08/09 06:50:41;;;;;;;7.10;5.57;;;24.40;67.60;;;;;;5051235;28;20098;-62
2021/08/09 06:53:08;;;;;;;8.48;5.40;;;24.50;67.40;;;;;;5051374;28;20028;-63
2021/08/09 06:55:34;;;;;;;6.70;5.00;;;24.60;67.20;;;;;;5051298;28;20025;-63
2021/08/09 06:57:59;;;;;;;7.15;5.60;;;24.70;67.20;;;;;;5050971;28;20025;-63
2021/08/09 07:00:25;;;;;;;6.63;5.28;;;24.80;67.10;;;;;;5051125;28;20504;-62
2021/08/09 07:02:51;;;;;;;7.60;5.38;;;24.80;66.70;;;;;;5050833;28;20111;-63
2021/08/09 07:05:16;;;;;;;7.13;5.07;;;24.90;66.70;;;;;;5050455;28;20484;-62
2021/08/09 07:07:44;;;;;;;6.95;5.30;;;25.00;66.70;;;;;;5050484;28;20033;-63
2021/08/09 07:10:10;;;;;;;7.65;5.55;;;25.10;67.00;;;;;;5050744;28;20036;-63
2021/08/09 07:12:36;;;;;;;8.00;5.75;;;25.20;66.40;;;;;;5051070;28;20021;-62
2021/08/09 07:15:02;;;;;;;7.43;5.32;;;25.30;66.20;;;;;;5051201;28;20021;-63
2021/08/09 07:17:28;;;;;;;7.53;5.22;;;25.40;66.20;;;;;;5052623;28;20165;-62
2021/08/09 07:19:54;;;;;;;7.65;5.55;;;25.40;66.20;;;;;;5055736;28;20549;-63
2021/08/09 07:22:19;;;;;;;7.82;5.13;;;25.60;66.10;;;;;;5055077;28;20029;-63
2021/08/09 07:24:45;;;;;;;6.90;5.00;;;25.80;65.60;;;;;;5054859;28;20039;-63
2021/08/09 07:27:12;;;;;;;7.65;5.85;;;25.90;65.00;;;;;;5055074;28;20028;-63
2021/08/09 07:29:37;;;;;;;6.82;5.07;;;26.00;64.70;;;;;;5054599;28;20411;-63
2021/08/09 07:32:03;;;;;;;7.93;5.60;;;26.10;64.40;;;;;;5053385;28;20036;-63
2021/08/09 07:34:29;;;;;;;6.30;4.95;;;26.20;63.80;;;;;;5054600;28;20025;-63
2021/08/09 07:36:55;;;;;;;6.28;5.15;;;26.30;64.00;;;;;;5054832;28;20083;-64
2021/08/09 07:39:20;;;;;;;7.32;5.40;;;26.30;63.70;;;;;;5054546;28;20017;-63
2021/08/09 07:41:46;;;;;;;6.65;5.18;;;26.50;63.70;;;;;;5054460;28;20033;-63
2021/08/09 07:44:12;;;;;;;6.90;5.70;;;26.70;63.60;;;;;;5054437;28;20070;-61
2021/08/09 07:46:37;;;;;;;6.72;4.90;;;26.80;63.40;;;;;;5054379;28;20021;-63
2021/08/09 07:49:03;;;;;;;7.05;5.07;;;27.00;63.20;;;;;;5053073;28;20087;-61
2021/08/09 07:51:29;;;;;;;6.50;5.25;;;27.20;63.00;;;;;;5054297;28;20483;-62
2021/08/09 07:53:54;;;;;;;6.70;5.10;;;27.40;62.10;;;;;;5054194;28;20025;-61
2021/08/09 07:56:20;;;;;;;6.57;4.70;;;27.60;61.80;;;;;;5054461;28;20017;-64
2021/08/09 07:58:46;;;;;;;7.22;5.05;;;27.70;61.50;;;;;;5054388;28;20452;-62
2021/08/09 08:01:11;;;;;;;6.18;4.53;;;28.00;61.20;;;;;;5054306;28;20033;-63
2021/08/09 08:03:37;;;;;;;7.32;4.30;;;28.10;60.70;;;;;;5054095;28;20025;-64
2021/08/09 08:06:03;;;;;;;6.95;4.68;;;28.40;59.90;;;;;;5053585;28;20053;-62
2021/08/09 08:08:28;;;;;;;7.03;4.45;;;28.40;59.50;;;;;;5054065;28;20067;-62
2021/08/09 08:10:54;;;;;;;6.20;4.57;;;28.60;59.20;;;;;;5053802;28;20033;-63
2021/08/09 08:13:20;;;;;;;6.25;4.55;;;28.70;59.10;;;;;;5053965;28;20100;-62
2021/08/09 08:15:45;;;;;;;6.40;4.43;;;28.90;58.60;;;;;;5053977;28;20045;-62
2021/08/09 08:18:11;;;;;;;7.72;4.50;;;29.10;58.70;;;;;;5053926;28;20027;-63
2021/08/09 08:20:37;;;;;;;7.40;4.60;;;29.40;58.00;;;;;;5053912;28;20434;-62
2021/08/09 08:23:04;;;;;;;6.97;4.65;;;29.60;57.80;;;;;;5053795;28;20473;-63
2021/08/09 08:25:31;;;;;;;5.47;4.20;;;29.90;57.20;;;;;;5053848;28;20028;-62
2021/08/09 08:27:56;;;;;;;5.85;4.10;;;30.10;57.30;;;;;;5051802;28;20032;-62
2021/08/09 08:30:22;;;;;;;5.70;4.20;;;30.40;57.00;;;;;;5053759;28;20486;-62
2021/08/09 08:32:48;;;;;;;7.32;4.35;;;30.60;56.20;;;;;;5053587;28;20029;-63
2021/08/09 08:35:14;;;;;;;5.90;4.00;;;30.90;56.10;;;;;;5053604;28;20102;-65
2021/08/09 08:37:39;;;;;;;5.82;4.20;;;31.20;55.80;;;;;;5053737;28;20032;-63
2021/08/09 08:40:07;;;;;;;7.45;4.40;;;31.40;55.00;;;;;;5052253;28;20039;-63
2021/08/09 08:42:33;;;;;;;5.90;4.40;;;31.60;54.30;;;;;;5053263;28;20040;-63
2021/08/09 08:44:59;;;;;;;7.90;4.88;;;31.70;54.00;;;;;;5053337;28;20025;-63
2021/08/09 08:47:26;;;;;;;6.50;4.90;;;32.00;53.00;;;;;;5053474;28;20124;-65
2021/08/09 08:49:53;;;;;;;7.00;4.55;;;32.00;52.90;;;;;;5053507;28;20025;-62
2021/08/09 08:52:19;;;;;;;6.88;4.60;;;32.00;53.30;;;;;;5053463;28;20121;-63
2021/08/09 08:54:45;;;;;;;7.25;4.45;;;32.30;53.40;;;;;;5053678;28;20060;-62
2021/08/09 08:57:22;;;;;;;5.82;4.28;;;32.60;52.80;;;;;;5053446;28;20033;-63
2021/08/09 08:59:48;;;;;;;6.65;4.35;;;32.90;52.40;;;;;;5053180;28;20052;-64
2021/08/09 09:02:35;;;;;;;6.95;4.90;;;33.00;53.20;;;;;;5052846;28;20033;-63
2021/08/09 09:05:16;;;;;;;7.28;4.78;;;33.40;51.00;;;;;;5052760;28;20032;-63
2021/08/09 09:07:47;;;;;;;7.22;4.88;;;33.70;51.30;;;;;;5053559;28;20107;-63
2021/08/09 09:10:15;;;;;;;8.15;4.93;;;33.90;50.20;;;;;;5051678;28;20548;-68
2021/08/09 09:12:41;;;;;;;6.35;4.78;;;33.90;49.80;;;;;;5052905;28;20021;-63
2021/08/09 09:15:07;;;;;;;7.50;4.70;;;34.00;50.10;;;;;;5052790;28;20043;-62
2021/08/09 09:17:34;;;;;;;6.47;4.20;;;34.20;50.00;;;;;;5052900;28;20059;-63
2021/08/09 09:20:27;;;;;;;6.18;4.40;;;34.30;49.90;;;;;;5052810;28;20016;-62
2021/08/09 09:23:14;;;;;;;6.95;4.28;;;34.50;48.80;;;;;;5053048;28;20039;-61
2021/08/09 09:25:40;;;;;;;7.15;4.40;;;34.60;49.10;;;;;;5052497;28;20029;-62
2021/08/09 09:28:29;;;;;;;7.03;4.90;;;34.90;48.60;;;;;;5052315;28;20048;-62
2021/08/09 09:31:13;;;;;;;6.50;4.60;;;35.00;48.20;;;;;;5052602;28;20376;-63
2021/08/09 09:33:46;;;;;;;7.18;4.82;;;35.10;48.50;;;;;;5051221;28;20430;-64
2021/08/09 09:36:11;;;;;;;6.90;4.25;;;35.20;47.90;;;;;;5052494;28;20049;-62
2021/08/09 09:38:44;;;;;;;5.90;4.50;;;35.40;48.10;;;;;;5052431;28;20075;-62
2021/08/09 09:41:11;;;;;;;6.93;4.45;;;35.60;47.60;;;;;;5050236;28;20498;-62
2021/08/09 09:43:44;;;;;;;6.65;4.68;;;35.60;47.50;;;;;;5052328;28;20080;-62
2021/08/09 09:46:21;;;;;;;7.43;4.90;;;35.80;46.80;;;;;;5052176;28;20021;-63
2021/08/09 09:48:47;;;;;;;7.40;4.38;;;35.90;46.30;;;;;;5052643;28;20024;-63
2021/08/09 09:51:19;;;;;;;6.30;5.03;;;35.90;46.90;;;;;;5052116;28;20079;-62
2021/08/09 09:53:46;;;;;;;7.57;5.10;;;36.00;46.70;;;;;;5050576;28;20021;-62
2021/08/09 09:56:12;;;;;;;7.85;5.20;;;36.10;46.70;;;;;;5052010;28;20036;-62
2021/08/09 09:58:39;;;;;;;7.72;4.90;;;36.30;46.50;;;;;;5052179;28;20464;-63
2021/08/09 10:01:07;;;;;;;7.60;5.43;;;36.50;46.30;;;;;;5052053;28;20040;-64
2021/08/09 10:03:34;;;;;;;6.57;5.03;;;36.60;45.60;;;;;;5051870;28;20025;-63
2021/08/09 10:06:01;;;;;;;6.80;4.93;;;36.60;45.40;;;;;;5051523;28;20523;-63
2021/08/09 10:08:40;;;;;;;6.15;4.85;;;36.70;45.30;;;;;;5050426;28;20032;-62
2021/08/09 10:11:06;;;;;;;9.80;5.20;;;36.70;45.40;;;;;;5052169;28;20387;-63
2021/08/09 10:13:33;;;;;;;8.15;5.20;;;36.90;45.00;;;;;;5051980;28;20104;-62
2021/08/09 10:16:03;;;;;;;7.90;4.97;;;37.00;44.80;;;;;;5050519;28;20430;-63
2021/08/09 10:18:31;;;;;;;6.07;4.80;;;37.10;44.60;;;;;;5051757;28;20017;-63
2021/08/09 10:20:59;;;;;;;6.20;4.50;;;37.10;44.60;;;;;;5051800;28;20057;-63
2021/08/09 10:23:37;;;;;;;7.65;5.20;;;37.20;44.70;;;;;;5051607;28;20029;-63
2021/08/09 10:26:04;;;;;;;5.85;4.63;;;37.40;43.30;;;;;;5051613;28;20100;-63
2021/08/09 10:28:51;;;;;;;6.63;4.35;;;37.30;44.50;;;;;;5051626;28;20021;-62
2021/08/09 10:31:31;;;;;;;6.38;4.53;;;37.50;43.80;;;;;;5051516;28;20067;-63
2021/08/09 10:33:58;;;;;;;6.90;4.43;;;37.70;43.80;;;;;;5051319;28;20072;-63
2021/08/09 10:36:25;;;;;;;6.72;4.18;;;37.90;43.70;;;;;;5051364;28;20021;-64
2021/08/09 10:39:00;;;;;;;6.30;4.22;;;38.10;43.30;;;;;;5051388;28;20032;-62
2021/08/09 10:41:31;;;;;;;7.50;4.38;;;38.30;42.80;;;;;;5051338;28;20061;-61
2021/08/09 10:44:08;;;;;;;5.38;4.07;;;38.50;42.20;;;;;;5051305;28;20037;-62
2021/08/09 10:46:38;;;;;;;7.93;4.47;;;38.50;42.00;;;;;;5051403;28;20025;-64
2021/08/09 10:49:08;;;;;;;6.30;3.72;;;38.60;42.00;;;;;;5051397;28;20037;-63
2021/08/09 10:51:52;;;;;;;7.37;3.50;;;38.50;42.30;;;;;;5051477;28;20033;-62
2021/08/09 10:54:28;;;;;;;8.02;4.18;;;38.60;41.80;;;;;;5051250;28;20021;-62
2021/08/09 10:56:55;;;;;;;5.47;3.90;;;38.60;41.80;;;;;;5050638;28;20515;-63
2021/08/09 10:59:40;;;;;;;6.95;4.38;;;38.60;42.20;;;;;;5051387;28;20444;-63
2021/08/09 11:02:18;;;;;;;7.35;5.10;;;38.90;41.70;;;;;;5050762;28;20356;-62
2021/08/09 11:04:44;;;;;;;7.72;5.72;;;39.00;41.00;;;;;;5051426;28;20040;-62
2021/08/09 11:07:17;;;;;;;9.32;6.13;;;38.80;41.10;;;;;;5050959;28;20119;-64
2021/08/09 11:09:47;;;;;;;9.60;5.88;;;38.70;41.10;;;;;;5051068;28;20073;-62
2021/08/09 11:12:21;;;;;;;9.50;6.20;;;38.70;41.80;;;;;;5051052;28;20380;-66
2021/08/09 11:15:10;;;;;;;10.95;5.60;;;38.60;41.20;;;;;;5051092;28;20028;-63
2021/08/09 11:17:38;;;;;;;9.27;6.55;;;38.60;41.00;;;;;;5050816;28;20021;-63
2021/08/09 11:20:13;;;;;;;6.40;4.40;;;38.80;41.30;;;;;;5050895;28;20044;-63
2021/08/09 11:22:40;;;;;;;6.05;3.85;;;39.00;41.40;;;;;;5051251;28;20071;-62
2021/08/09 11:25:31;;;;;;;7.95;5.07;;;39.30;41.00;;;;;;5050953;28;20029;-63
2021/08/09 11:28:01;;;;;;;7.50;4.80;;;39.50;40.00;;;;;;5050737;28;20033;-62
2021/08/09 11:30:38;;;;;;;7.85;5.55;;;39.30;41.00;;;;;;5050797;28;20028;-62
2021/08/09 11:33:05;;;;;;;8.57;5.00;;;39.50;40.60;;;;;;5031089;28;20072;-63
2021/08/09 11:35:40;;;;;;;7.07;4.20;;;39.60;40.80;;;;;;5030857;28;20092;-63
2021/08/09 11:38:06;;;;;;;7.47;4.72;;;39.70;40.20;;;;;;5030917;28;20026;-63
2021/08/09 11:41:05;;;;;;;6.05;4.10;;;39.90;40.10;;;;;;5030678;28;20036;-62
2021/08/09 11:43:32;;;;;;;5.88;3.90;;;39.70;39.60;;;;;;5023043;28;20549;-62
2021/08/09 11:46:03;;;;;;;5.45;3.80;;;40.00;40.00;;;;;;5030397;28;20381;-62
2021/08/09 11:48:34;;;;;;;5.80;3.97;;;40.00;39.90;;;;;;5029433;28;20053;-62
2021/08/09 11:51:05;;;;;;;6.45;4.00;;;40.20;40.00;;;;;;5030613;28;20026;-62
2021/08/09 11:53:31;;;;;;;6.95;3.70;;;40.30;40.10;;;;;;5031067;28;20025;-63
2021/08/09 11:56:08;;;;;;;5.32;3.80;;;40.40;38.70;;;;;;5030735;28;20365;-63
2021/08/09 11:58:33;;;;;;;4.90;3.13;;;40.30;38.90;;;;;;5030885;28;20028;-62
2021/08/09 12:00:59;;;;;;;5.38;3.42;;;40.20;39.20;;;;;;5030744;28;20022;-62
2021/08/09 12:03:27;;;;;;;5.95;3.20;;;40.20;39.10;;;;;;5031609;28;20034;-63
2021/08/09 12:05:57;;;;;;;5.78;2.92;;;40.30;39.40;;;;;;5034070;28;20056;-63
2021/08/09 12:08:24;;;;;;;4.40;2.80;;;40.20;38.80;;;;;;5034484;28;20036;-63
2021/08/09 12:10:50;;;;;;;4.60;2.97;;;40.30;38.70;;;;;;5034129;28;20030;-62
2021/08/09 12:13:31;;;;;;;4.63;2.90;;;40.50;38.60;;;;;;5034359;28;20030;-62
2021/08/09 12:16:06;;;;;;;;;;;40.60;37.60;;;;;;5034311;28;20472;-62
2021/08/09 12:18:32;;;;;;;6.00;3.05;;;40.10;38.20;;;;;;5033980;28;19912;-62
2021/08/09 12:21:14;;;;;;;4.57;2.65;;;40.40;38.40;;;;;;5034002;28;20037;-61
2021/08/09 12:23:55;;;;;;;5.40;2.85;;;40.70;37.70;;;;;;5033691;28;20536;-62
2021/08/09 12:26:29;;;;;;;4.82;2.83;;;40.90;37.40;;;;;;5033574;28;20473;-62
2021/08/09 12:28:58;;;;;;;4.35;2.80;;;40.90;37.20;;;;;;5033556;28;20026;-61
2021/08/09 12:31:35;;;;;;;5.30;2.70;;;41.10;37.60;;;;;;5041445;28;20063;-64
2021/08/09 12:34:05;;;;;;;4.57;2.80;;;41.20;36.10;;;;;;5053256;28;20346;-63
2021/08/09 12:36:32;;;;;;;5.53;2.97;;;41.20;36.80;;;;;;5053225;28;20020;-62
2021/08/09 12:38:58;;;;;;;4.10;2.30;;;41.20;36.70;;;;;;5053178;28;20025;-62
2021/08/09 12:41:29;;;;;;;4.13;2.40;;;41.10;37.00;;;;;;5053575;28;20031;-63
2021/08/09 12:43:56;;;;;;;5.70;2.42;;;41.30;36.90;;;;;;5053471;28;20025;-62
2021/08/09 12:46:22;;;;;;;5.72;2.20;;;41.50;37.20;;;;;;5052326;28;20036;-65
2021/08/09 12:48:49;;;;;;;3.95;2.33;;;41.80;36.30;;;;;;5053547;28;20094;-63
2021/08/09 12:51:15;;;;;;;5.95;2.53;;;41.80;36.40;;;;;;5053304;28;20037;-63
2021/08/09 12:53:40;;;;;;;4.57;2.50;;;42.00;36.30;;;;;;5053616;28;20025;-62
2021/08/09 12:56:06;;;;;;;4.20;2.30;;;42.30;35.60;;;;;;5053393;28;20024;-63